sensor_id;sensor_type;location;lat;lon;timestamp;P1;durP1;ratioP1;P2;durP2;ratioP2
20365;SDS011;10341;49.894;8.822;2022-11-20T00:10:12;39.63;;;17.77;;
20365;SDS011;10341;49.894;8.822;2022-11-20T00:15:31;30.27;;;13.23;;
20365;SDS011;10341;49.894;8.822;2022-11-20T00:26:11;39.08;;;17.02;;
20365;SDS011;10341;49.894;8.822;2022-11-20T00:31:32;36.90;;;17.10;;
20365;SDS011;10341;49.894;8.822;2022-11-20T00:36:53;35.17;;;16.23;;
20365;SDS011;10341;49.894;8.822;2022-11-20T00:42:12;37.55;;;16.00;;
20365;SDS011;10341;49.894;8.822;2022-11-20T00:52:51;32.58;;;14.57;;
20365;SDS011;10341;49.894;8.822;2022-11-20T00:58:11;36.30;;;16.17;;
20365;SDS011;10341;49.894;8.822;2022-11-20T01:03:40;33.80;;;14.75;;
20365;SDS011;10341;49.894;8.822;2022-11-20T01:09:03;34.15;;;14.82;;
20365;SDS011;10341;49.894;8.822;2022-11-20T01:14:26;32.50;;;14.95;;
20365;SDS011;10341;49.894;8.822;2022-11-20T01:19:48;36.60;;;15.97;;
20365;SDS011;10341;49.894;8.822;2022-11-20T01:25:09;37.60;;;14.98;;
20365;SDS011;10341;49.894;8.822;2022-11-20T01:30:28;37.43;;;17.03;;
20365;SDS011;10341;49.894;8.822;2022-11-20T01:41:40;32.38;;;14.57;;
20365;SDS011;10341;49.894;8.822;2022-11-20T01:47:41;33.28;;;15.20;;
20365;SDS011;10341;49.894;8.822;2022-11-20T01:53:04;35.30;;;15.70;;
20365;SDS011;10341;49.894;8.822;2022-11-20T01:58:27;33.70;;;15.13;;
20365;SDS011;10341;49.894;8.822;2022-11-20T02:03:50;28.65;;;13.57;;
20365;SDS011;10341;49.894;8.822;2022-11-20T02:09:11;28.30;;;13.65;;
20365;SDS011;10341;49.894;8.822;2022-11-20T02:19:50;35.43;;;15.03;;
20365;SDS011;10341;49.894;8.822;2022-11-20T02:30:29;34.40;;;15.00;;
20365;SDS011;10341;49.894;8.822;2022-11-20T02:35:49;29.63;;;14.05;;
20365;SDS011;10341;49.894;8.822;2022-11-20T02:41:08;31.00;;;14.27;;
20365;SDS011;10341;49.894;8.822;2022-11-20T02:46:27;31.23;;;14.23;;
20365;SDS011;10341;49.894;8.822;2022-11-20T02:51:46;38.50;;;15.10;;
20365;SDS011;10341;49.894;8.822;2022-11-20T02:57:05;38.67;;;16.37;;
20365;SDS011;10341;49.894;8.822;2022-11-20T03:02:24;36.38;;;15.88;;
20365;SDS011;10341;49.894;8.822;2022-11-20T03:07:44;35.08;;;15.88;;
20365;SDS011;10341;49.894;8.822;2022-11-20T03:13:03;39.10;;;16.85;;
20365;SDS011;10341;49.894;8.822;2022-11-20T03:23:42;35.22;;;15.02;;
20365;SDS011;10341;49.894;8.822;2022-11-20T03:29:02;35.47;;;15.60;;
20365;SDS011;10341;49.894;8.822;2022-11-20T03:34:22;34.78;;;15.85;;
20365;SDS011;10341;49.894;8.822;2022-11-20T03:39:42;34.63;;;14.95;;
20365;SDS011;10341;49.894;8.822;2022-11-20T03:45:01;33.92;;;15.07;;
20365;SDS011;10341;49.894;8.822;2022-11-20T03:50:21;32.53;;;14.80;;
20365;SDS011;10341;49.894;8.822;2022-11-20T03:55:42;37.23;;;15.37;;
20365;SDS011;10341;49.894;8.822;2022-11-20T04:01:09;36.85;;;15.13;;
20365;SDS011;10341;49.894;8.822;2022-11-20T04:06:33;35.75;;;15.13;;
20365;SDS011;10341;49.894;8.822;2022-11-20T04:11:56;35.30;;;14.98;;
20365;SDS011;10341;49.894;8.822;2022-11-20T04:17:15;33.75;;;15.23;;
20365;SDS011;10341;49.894;8.822;2022-11-20T04:22:36;33.63;;;15.97;;
20365;SDS011;10341;49.894;8.822;2022-11-20T04:27:56;36.95;;;15.82;;
20365;SDS011;10341;49.894;8.822;2022-11-20T04:38:34;36.28;;;15.07;;
20365;SDS011;10341;49.894;8.822;2022-11-20T04:43:58;39.83;;;15.88;;
20365;SDS011;10341;49.894;8.822;2022-11-20T04:49:21;37.58;;;14.70;;
20365;SDS011;10341;49.894;8.822;2022-11-20T04:54:40;40.67;;;16.30;;
20365;SDS011;10341;49.894;8.822;2022-11-20T05:05:19;33.38;;;13.45;;
20365;SDS011;10341;49.894;8.822;2022-11-20T05:10:38;42.63;;;15.90;;
20365;SDS011;10341;49.894;8.822;2022-11-20T05:16:01;41.90;;;15.35;;
20365;SDS011;10341;49.894;8.822;2022-11-20T05:21:25;37.83;;;15.20;;
20365;SDS011;10341;49.894;8.822;2022-11-20T05:26:44;37.42;;;14.90;;
20365;SDS011;10341;49.894;8.822;2022-11-20T05:32:03;38.45;;;15.20;;
20365;SDS011;10341;49.894;8.822;2022-11-20T05:37:24;37.17;;;14.32;;
20365;SDS011;10341;49.894;8.822;2022-11-20T05:42:44;40.33;;;14.35;;
20365;SDS011;10341;49.894;8.822;2022-11-20T05:48:03;41.50;;;15.40;;
20365;SDS011;10341;49.894;8.822;2022-11-20T05:53:22;33.90;;;13.93;;
20365;SDS011;10341;49.894;8.822;2022-11-20T05:58:42;33.30;;;13.43;;
20365;SDS011;10341;49.894;8.822;2022-11-20T06:04:01;44.08;;;15.60;;
20365;SDS011;10341;49.894;8.822;2022-11-20T06:09:20;40.43;;;14.80;;
20365;SDS011;10341;49.894;8.822;2022-11-20T06:14:40;41.90;;;15.35;;
20365;SDS011;10341;49.894;8.822;2022-11-20T06:19:59;42.72;;;15.32;;
20365;SDS011;10341;49.894;8.822;2022-11-20T06:25:18;39.33;;;15.10;;
20365;SDS011;10341;49.894;8.822;2022-11-20T06:30:37;42.13;;;15.43;;
20365;SDS011;10341;49.894;8.822;2022-11-20T06:36:03;35.88;;;13.85;;
20365;SDS011;10341;49.894;8.822;2022-11-20T06:41:23;37.20;;;14.25;;
20365;SDS011;10341;49.894;8.822;2022-11-20T06:46:43;42.03;;;15.80;;
20365;SDS011;10341;49.894;8.822;2022-11-20T06:52:03;41.55;;;14.27;;
20365;SDS011;10341;49.894;8.822;2022-11-20T06:57:23;38.28;;;13.45;;
20365;SDS011;10341;49.894;8.822;2022-11-20T07:02:42;36.40;;;13.23;;
20365;SDS011;10341;49.894;8.822;2022-11-20T07:08:02;37.78;;;13.85;;
20365;SDS011;10341;49.894;8.822;2022-11-20T07:13:22;33.63;;;12.57;;
20365;SDS011;10341;49.894;8.822;2022-11-20T07:18:41;34.35;;;12.82;;
20365;SDS011;10341;49.894;8.822;2022-11-20T07:24:00;29.40;;;11.88;;
20365;SDS011;10341;49.894;8.822;2022-11-20T07:29:19;28.33;;;11.63;;
20365;SDS011;10341;49.894;8.822;2022-11-20T07:34:38;27.38;;;11.73;;
20365;SDS011;10341;49.894;8.822;2022-11-20T07:39:57;29.83;;;11.17;;
20365;SDS011;10341;49.894;8.822;2022-11-20T07:45:17;30.57;;;12.00;;
20365;SDS011;10341;49.894;8.822;2022-11-20T07:50:36;26.52;;;11.40;;
20365;SDS011;10341;49.894;8.822;2022-11-20T07:55:58;31.42;;;12.23;;
20365;SDS011;10341;49.894;8.822;2022-11-20T08:01:19;30.33;;;11.40;;
20365;SDS011;10341;49.894;8.822;2022-11-20T08:06:38;28.60;;;11.43;;
20365;SDS011;10341;49.894;8.822;2022-11-20T08:11:57;27.97;;;12.27;;
20365;SDS011;10341;49.894;8.822;2022-11-20T08:17:34;31.65;;;12.25;;
20365;SDS011;10341;49.894;8.822;2022-11-20T08:22:57;25.53;;;11.53;;
20365;SDS011;10341;49.894;8.822;2022-11-20T08:28:20;26.15;;;11.73;;
20365;SDS011;10341;49.894;8.822;2022-11-20T08:33:39;25.88;;;10.93;;
20365;SDS011;10341;49.894;8.822;2022-11-20T08:38:58;25.70;;;11.00;;
20365;SDS011;10341;49.894;8.822;2022-11-20T08:44:17;30.27;;;13.17;;
20365;SDS011;10341;49.894;8.822;2022-11-20T08:49:36;33.65;;;13.18;;
20365;SDS011;10341;49.894;8.822;2022-11-20T08:54:56;30.90;;;12.38;;
20365;SDS011;10341;49.894;8.822;2022-11-20T09:05:35;32.80;;;13.50;;
20365;SDS011;10341;49.894;8.822;2022-11-20T09:10:55;33.95;;;13.45;;
20365;SDS011;10341;49.894;8.822;2022-11-20T09:16:15;33.72;;;14.80;;
20365;SDS011;10341;49.894;8.822;2022-11-20T09:21:35;28.67;;;13.40;;
20365;SDS011;10341;49.894;8.822;2022-11-20T09:26:54;25.90;;;13.17;;
20365;SDS011;10341;49.894;8.822;2022-11-20T09:32:14;22.27;;;11.75;;
20365;SDS011;10341;49.894;8.822;2022-11-20T09:37:33;25.23;;;11.37;;
20365;SDS011;10341;49.894;8.822;2022-11-20T09:43:03;26.48;;;12.48;;
20365;SDS011;10341;49.894;8.822;2022-11-20T09:54:37;23.10;;;11.85;;
20365;SDS011;10341;49.894;8.822;2022-11-20T10:00:02;20.10;;;10.57;;
20365;SDS011;10341;49.894;8.822;2022-11-20T10:05:39;19.80;;;9.85;;
20365;SDS011;10341;49.894;8.822;2022-11-20T10:11:24;24.10;;;10.07;;
20365;SDS011;10341;49.894;8.822;2022-11-20T10:34:26;19.30;;;9.02;;
20365;SDS011;10341;49.894;8.822;2022-11-20T10:51:35;16.65;;;8.63;;
20365;SDS011;10341;49.894;8.822;2022-11-20T11:02:51;14.88;;;8.70;;
20365;SDS011;10341;49.894;8.822;2022-11-20T11:08:13;15.73;;;8.65;;
20365;SDS011;10341;49.894;8.822;2022-11-20T11:13:35;14.73;;;7.90;;
20365;SDS011;10341;49.894;8.822;2022-11-20T11:19:15;16.83;;;8.15;;
20365;SDS011;10341;49.894;8.822;2022-11-20T11:24:33;15.40;;;8.37;;
20365;SDS011;10341;49.894;8.822;2022-11-20T11:30:10;16.02;;;8.57;;
20365;SDS011;10341;49.894;8.822;2022-11-20T11:35:32;17.00;;;8.40;;
20365;SDS011;10341;49.894;8.822;2022-11-20T11:40:53;15.93;;;7.78;;
20365;SDS011;10341;49.894;8.822;2022-11-20T11:51:41;14.00;;;8.18;;
20365;SDS011;10341;49.894;8.822;2022-11-20T12:03:16;14.35;;;7.93;;
20365;SDS011;10341;49.894;8.822;2022-11-20T12:08:59;13.02;;;7.57;;
20365;SDS011;10341;49.894;8.822;2022-11-20T12:14:35;13.57;;;7.38;;
20365;SDS011;10341;49.894;8.822;2022-11-20T12:19:57;11.13;;;6.97;;
20365;SDS011;10341;49.894;8.822;2022-11-20T12:30:41;12.23;;;7.30;;
20365;SDS011;10341;49.894;8.822;2022-11-20T12:36:18;12.20;;;6.63;;
20365;SDS011;10341;49.894;8.822;2022-11-20T12:53:40;12.45;;;6.97;;
20365;SDS011;10341;49.894;8.822;2022-11-20T13:10:46;12.05;;;6.40;;
20365;SDS011;10341;49.894;8.822;2022-11-20T13:21:44;13.13;;;6.75;;
20365;SDS011;10341;49.894;8.822;2022-11-20T13:32:42;17.13;;;9.45;;
20365;SDS011;10341;49.894;8.822;2022-11-20T13:38:27;14.68;;;7.85;;
20365;SDS011;10341;49.894;8.822;2022-11-20T13:44:04;12.70;;;7.30;;
20365;SDS011;10341;49.894;8.822;2022-11-20T13:49:33;12.85;;;7.28;;
20365;SDS011;10341;49.894;8.822;2022-11-20T13:55:00;15.23;;;7.05;;
20365;SDS011;10341;49.894;8.822;2022-11-20T14:00:24;11.70;;;7.05;;
20365;SDS011;10341;49.894;8.822;2022-11-20T14:11:23;14.98;;;8.23;;
20365;SDS011;10341;49.894;8.822;2022-11-20T14:16:44;14.00;;;8.75;;
20365;SDS011;10341;49.894;8.822;2022-11-20T14:22:08;16.40;;;9.43;;
20365;SDS011;10341;49.894;8.822;2022-11-20T14:27:32;17.10;;;9.90;;
20365;SDS011;10341;49.894;8.822;2022-11-20T14:32:56;17.55;;;10.05;;
20365;SDS011;10341;49.894;8.822;2022-11-20T14:38:27;19.05;;;11.00;;
20365;SDS011;10341;49.894;8.822;2022-11-20T14:43:53;18.60;;;10.02;;
20365;SDS011;10341;49.894;8.822;2022-11-20T14:49:15;22.95;;;12.77;;
20365;SDS011;10341;49.894;8.822;2022-11-20T15:05:49;30.70;;;15.43;;
20365;SDS011;10341;49.894;8.822;2022-11-20T15:11:19;27.23;;;14.32;;
20365;SDS011;10341;49.894;8.822;2022-11-20T15:16:42;26.00;;;14.13;;
20365;SDS011;10341;49.894;8.822;2022-11-20T15:27:21;22.48;;;11.52;;
20365;SDS011;10341;49.894;8.822;2022-11-20T15:32:41;21.85;;;11.30;;
20365;SDS011;10341;49.894;8.822;2022-11-20T15:38:00;23.15;;;12.88;;
20365;SDS011;10341;49.894;8.822;2022-11-20T15:43:20;18.70;;;10.60;;
20365;SDS011;10341;49.894;8.822;2022-11-20T15:48:41;23.42;;;12.07;;
20365;SDS011;10341;49.894;8.822;2022-11-20T15:54:10;20.60;;;11.25;;
20365;SDS011;10341;49.894;8.822;2022-11-20T15:59:30;25.40;;;13.00;;
20365;SDS011;10341;49.894;8.822;2022-11-20T16:04:50;21.75;;;11.50;;
20365;SDS011;10341;49.894;8.822;2022-11-20T16:10:09;25.50;;;11.60;;
20365;SDS011;10341;49.894;8.822;2022-11-20T16:15:30;22.88;;;11.80;;
20365;SDS011;10341;49.894;8.822;2022-11-20T16:21:10;24.38;;;12.85;;
20365;SDS011;10341;49.894;8.822;2022-11-20T16:26:32;29.70;;;14.75;;
20365;SDS011;10341;49.894;8.822;2022-11-20T16:31:52;24.88;;;13.13;;
20365;SDS011;10341;49.894;8.822;2022-11-20T16:37:11;21.52;;;12.00;;
20365;SDS011;10341;49.894;8.822;2022-11-20T16:47:54;46.28;;;24.02;;
20365;SDS011;10341;49.894;8.822;2022-11-20T16:53:14;31.38;;;16.88;;
20365;SDS011;10341;49.894;8.822;2022-11-20T16:58:34;29.00;;;14.63;;
20365;SDS011;10341;49.894;8.822;2022-11-20T17:03:54;24.58;;;12.82;;
20365;SDS011;10341;49.894;8.822;2022-11-20T17:09:15;22.40;;;12.75;;
20365;SDS011;10341;49.894;8.822;2022-11-20T17:14:35;25.95;;;12.98;;
20365;SDS011;10341;49.894;8.822;2022-11-20T17:19:54;20.42;;;10.65;;
20365;SDS011;10341;49.894;8.822;2022-11-20T17:25:14;17.23;;;9.03;;
20365;SDS011;10341;49.894;8.822;2022-11-20T17:30:33;10.60;;;5.38;;
20365;SDS011;10341;49.894;8.822;2022-11-20T17:35:53;13.20;;;5.10;;
20365;SDS011;10341;49.894;8.822;2022-11-20T17:41:17;7.55;;;4.30;;
20365;SDS011;10341;49.894;8.822;2022-11-20T17:46:39;5.32;;;3.28;;
20365;SDS011;10341;49.894;8.822;2022-11-20T17:51:59;5.20;;;2.10;;
20365;SDS011;10341;49.894;8.822;2022-11-20T17:57:19;6.68;;;2.90;;
20365;SDS011;10341;49.894;8.822;2022-11-20T18:02:57;4.53;;;2.03;;
20365;SDS011;10341;49.894;8.822;2022-11-20T18:13:37;6.95;;;2.50;;
20365;SDS011;10341;49.894;8.822;2022-11-20T18:19:16;7.80;;;2.33;;
20365;SDS011;10341;49.894;8.822;2022-11-20T18:24:38;4.50;;;2.50;;
20365;SDS011;10341;49.894;8.822;2022-11-20T18:35:17;8.80;;;2.83;;
20365;SDS011;10341;49.894;8.822;2022-11-20T18:40:36;5.40;;;2.70;;
20365;SDS011;10341;49.894;8.822;2022-11-20T18:46:02;5.72;;;2.55;;
20365;SDS011;10341;49.894;8.822;2022-11-20T18:51:22;7.47;;;4.03;;
20365;SDS011;10341;49.894;8.822;2022-11-20T18:56:42;8.82;;;3.80;;
20365;SDS011;10341;49.894;8.822;2022-11-20T19:02:01;7.07;;;4.72;;
20365;SDS011;10341;49.894;8.822;2022-11-20T19:07:21;8.73;;;3.27;;
20365;SDS011;10341;49.894;8.822;2022-11-20T19:12:41;7.82;;;2.60;;
20365;SDS011;10341;49.894;8.822;2022-11-20T19:18:00;5.43;;;2.70;;
20365;SDS011;10341;49.894;8.822;2022-11-20T19:23:19;4.63;;;2.97;;
20365;SDS011;10341;49.894;8.822;2022-11-20T19:34:00;6.70;;;2.60;;
20365;SDS011;10341;49.894;8.822;2022-11-20T19:39:20;5.75;;;2.80;;
20365;SDS011;10341;49.894;8.822;2022-11-20T19:44:40;5.78;;;2.45;;
20365;SDS011;10341;49.894;8.822;2022-11-20T19:50:00;4.20;;;2.20;;
20365;SDS011;10341;49.894;8.822;2022-11-20T19:55:19;5.65;;;2.90;;
20365;SDS011;10341;49.894;8.822;2022-11-20T20:00:39;6.38;;;3.10;;
20365;SDS011;10341;49.894;8.822;2022-11-20T20:06:02;5.20;;;3.13;;
20365;SDS011;10341;49.894;8.822;2022-11-20T20:11:23;5.50;;;2.97;;
20365;SDS011;10341;49.894;8.822;2022-11-20T20:16:44;3.38;;;2.63;;
20365;SDS011;10341;49.894;8.822;2022-11-20T20:22:04;5.88;;;3.05;;
20365;SDS011;10341;49.894;8.822;2022-11-20T20:27:23;7.10;;;2.47;;
20365;SDS011;10341;49.894;8.822;2022-11-20T20:32:42;2.53;;;2.00;;
20365;SDS011;10341;49.894;8.822;2022-11-20T20:38:02;3.73;;;1.70;;
20365;SDS011;10341;49.894;8.822;2022-11-20T20:43:21;1.90;;;1.48;;
20365;SDS011;10341;49.894;8.822;2022-11-20T20:48:41;2.08;;;1.25;;
20365;SDS011;10341;49.894;8.822;2022-11-20T20:54:00;1.63;;;1.30;;
20365;SDS011;10341;49.894;8.822;2022-11-20T20:59:19;1.40;;;1.13;;
20365;SDS011;10341;49.894;8.822;2022-11-20T21:04:38;0.93;;;0.93;;
20365;SDS011;10341;49.894;8.822;2022-11-20T21:09:57;2.40;;;1.43;;
20365;SDS011;10341;49.894;8.822;2022-11-20T21:15:17;1.75;;;1.38;;
20365;SDS011;10341;49.894;8.822;2022-11-20T21:20:39;1.85;;;1.20;;
20365;SDS011;10341;49.894;8.822;2022-11-20T21:26:18;2.05;;;1.15;;
20365;SDS011;10341;49.894;8.822;2022-11-20T21:31:37;1.42;;;1.20;;
20365;SDS011;10341;49.894;8.822;2022-11-20T21:36:57;1.60;;;1.13;;
20365;SDS011;10341;49.894;8.822;2022-11-20T21:42:16;3.35;;;1.60;;
20365;SDS011;10341;49.894;8.822;2022-11-20T21:47:35;1.25;;;1.15;;
20365;SDS011;10341;49.894;8.822;2022-11-20T21:52:54;3.70;;;1.47;;
20365;SDS011;10341;49.894;8.822;2022-11-20T21:58:13;6.97;;;2.10;;
20365;SDS011;10341;49.894;8.822;2022-11-20T22:03:33;3.53;;;1.88;;
20365;SDS011;10341;49.894;8.822;2022-11-20T22:08:53;4.07;;;1.48;;
20365;SDS011;10341;49.894;8.822;2022-11-20T22:19:38;3.92;;;1.40;;
20365;SDS011;10341;49.894;8.822;2022-11-20T22:24:58;6.07;;;1.60;;
20365;SDS011;10341;49.894;8.822;2022-11-20T22:30:17;3.53;;;1.50;;
20365;SDS011;10341;49.894;8.822;2022-11-20T22:35:36;2.50;;;1.40;;
20365;SDS011;10341;49.894;8.822;2022-11-20T22:41:06;2.17;;;1.50;;
20365;SDS011;10341;49.894;8.822;2022-11-20T22:46:31;2.20;;;1.35;;
20365;SDS011;10341;49.894;8.822;2022-11-20T22:51:52;2.42;;;1.48;;
20365;SDS011;10341;49.894;8.822;2022-11-20T22:57:12;3.35;;;1.67;;
20365;SDS011;10341;49.894;8.822;2022-11-20T23:02:32;3.58;;;1.70;;
20365;SDS011;10341;49.894;8.822;2022-11-20T23:07:51;4.35;;;1.65;;
20365;SDS011;10341;49.894;8.822;2022-11-20T23:13:10;2.37;;;1.47;;
20365;SDS011;10341;49.894;8.822;2022-11-20T23:18:30;4.88;;;1.63;;
20365;SDS011;10341;49.894;8.822;2022-11-20T23:23:51;7.28;;;2.65;;
20365;SDS011;10341;49.894;8.822;2022-11-20T23:29:14;7.63;;;2.35;;
20365;SDS011;10341;49.894;8.822;2022-11-20T23:34:34;8.48;;;2.05;;
20365;SDS011;10341;49.894;8.822;2022-11-20T23:39:53;6.97;;;1.75;;
20365;SDS011;10341;49.894;8.822;2022-11-20T23:45:13;8.00;;;2.22;;
20365;SDS011;10341;49.894;8.822;2022-11-20T23:50:33;4.17;;;1.87;;
20365;SDS011;10341;49.894;8.822;2022-11-20T23:55:54;5.63;;;1.98;;
